sensor_id;sensor_type;location;lat;lon;timestamp;pressure;altitude;pressure_sealevel;temperature;humidity
24558;BME280;12726;49.148;8.582;2022-10-16T00:02:24;100185.09;;;15.62;100.00
24558;BME280;12726;49.148;8.582;2022-10-16T00:05:10;100203.41;;;15.72;100.00
24558;BME280;12726;49.148;8.582;2022-10-16T00:07:57;100208.81;;;15.72;100.00
24558;BME280;12726;49.148;8.582;2022-10-16T00:10:42;100205.56;;;15.70;100.00
24558;BME280;12726;49.148;8.582;2022-10-16T00:13:28;100191.59;;;15.61;100.00
24558;BME280;12726;49.148;8.582;2022-10-16T00:16:14;100217.78;;;15.72;100.00
24558;BME280;12726;49.148;8.582;2022-10-16T00:19:00;100213.19;;;15.73;100.00
24558;BME280;12726;49.148;8.582;2022-10-16T00:21:46;100212.69;;;15.76;100.00
24558;BME280;12726;49.148;8.582;2022-10-16T00:24:32;100198.56;;;15.74;100.00
24558;BME280;12726;49.148;8.582;2022-10-16T00:27:18;100208.41;;;15.80;100.00
24558;BME280;12726;49.148;8.582;2022-10-16T00:30:05;100197.53;;;15.80;100.00
24558;BME280;12726;49.148;8.582;2022-10-16T00:32:52;100199.75;;;15.83;100.00
24558;BME280;12726;49.148;8.582;2022-10-16T00:35:38;100189.41;;;15.80;100.00
24558;BME280;12726;49.148;8.582;2022-10-16T00:38:23;100185.22;;;15.72;100.00
24558;BME280;12726;49.148;8.582;2022-10-16T00:41:13;100210.94;;;15.86;100.00
24558;BME280;12726;49.148;8.582;2022-10-16T00:44:00;100213.66;;;15.86;100.00
24558;BME280;12726;49.148;8.582;2022-10-16T00:46:46;100216.94;;;15.88;100.00
24558;BME280;12726;49.148;8.582;2022-10-16T00:49:31;100210.69;;;15.88;100.00
24558;BME280;12726;49.148;8.582;2022-10-16T00:52:17;100197.53;;;15.80;100.00
24558;BME280;12726;49.148;8.582;2022-10-16T00:55:05;100209.22;;;15.80;100.00
24558;BME280;12726;49.148;8.582;2022-10-16T00:57:53;100204.31;;;15.77;100.00
24558;BME280;12726;49.148;8.582;2022-10-16T01:00:38;100204.81;;;15.74;100.00
24558;BME280;12726;49.148;8.582;2022-10-16T01:03:27;100209.66;;;15.72;100.00
24558;BME280;12726;49.148;8.582;2022-10-16T01:06:21;100212.06;;;15.69;100.00
24558;BME280;12726;49.148;8.582;2022-10-16T01:09:14;100224.03;;;15.73;100.00
24558;BME280;12726;49.148;8.582;2022-10-16T01:12:08;100222.97;;;15.74;100.00
24558;BME280;12726;49.148;8.582;2022-10-16T01:14:58;100233.91;;;15.79;100.00
24558;BME280;12726;49.148;8.582;2022-10-16T01:17:51;100237.69;;;15.78;100.00
24558;BME280;12726;49.148;8.582;2022-10-16T01:20:43;100237.38;;;15.74;100.00
24558;BME280;12726;49.148;8.582;2022-10-16T01:23:38;100235.72;;;15.73;100.00
24558;BME280;12726;49.148;8.582;2022-10-16T01:26:37;100227.09;;;15.76;100.00
24558;BME280;12726;49.148;8.582;2022-10-16T01:29:33;100234.41;;;15.76;100.00
24558;BME280;12726;49.148;8.582;2022-10-16T01:32:26;100226.56;;;15.79;100.00
24558;BME280;12726;49.148;8.582;2022-10-16T01:35:18;100210.72;;;15.71;100.00
24558;BME280;12726;49.148;8.582;2022-10-16T01:38:09;100213.25;;;15.78;100.00
24558;BME280;12726;49.148;8.582;2022-10-16T01:41:00;100218.94;;;15.76;100.00
24558;BME280;12726;49.148;8.582;2022-10-16T01:43:50;100214.06;;;15.78;100.00
24558;BME280;12726;49.148;8.582;2022-10-16T01:46:42;100216.78;;;15.78;100.00
24558;BME280;12726;49.148;8.582;2022-10-16T01:49:32;100214.34;;;15.77;100.00
24558;BME280;12726;49.148;8.582;2022-10-16T01:52:23;100220.03;;;15.75;100.00
24558;BME280;12726;49.148;8.582;2022-10-16T01:55:14;100223.22;;;15.72;100.00
24558;BME280;12726;49.148;8.582;2022-10-16T01:58:01;100221.03;;;15.69;100.00
24558;BME280;12726;49.148;8.582;2022-10-16T02:00:48;100221.50;;;15.66;100.00
24558;BME280;12726;49.148;8.582;2022-10-16T02:03:37;100226.38;;;15.64;100.00
24558;BME280;12726;49.148;8.582;2022-10-16T02:06:26;100211.09;;;15.58;100.00
24558;BME280;12726;49.148;8.582;2022-10-16T02:09:11;100220.81;;;15.54;100.00
24558;BME280;12726;49.148;8.582;2022-10-16T02:12:03;100218.31;;;15.52;100.00
24558;BME280;12726;49.148;8.582;2022-10-16T02:14:51;100209.44;;;15.40;100.00
24558;BME280;12726;49.148;8.582;2022-10-16T02:17:37;100223.09;;;15.45;100.00
24558;BME280;12726;49.148;8.582;2022-10-16T02:20:27;100224.31;;;15.38;100.00
24558;BME280;12726;49.148;8.582;2022-10-16T02:23:19;100224.81;;;15.35;100.00
24558;BME280;12726;49.148;8.582;2022-10-16T02:26:13;100223.19;;;15.34;100.00
24558;BME280;12726;49.148;8.582;2022-10-16T02:29:02;100220.13;;;15.30;100.00
24558;BME280;12726;49.148;8.582;2022-10-16T02:31:54;100221.97;;;15.24;100.00
24558;BME280;12726;49.148;8.582;2022-10-16T02:34:41;100225.91;;;15.17;100.00
24558;BME280;12726;49.148;8.582;2022-10-16T02:37:28;100232.22;;;15.22;100.00
24558;BME280;12726;49.148;8.582;2022-10-16T02:40:15;100236.28;;;15.20;100.00
24558;BME280;12726;49.148;8.582;2022-10-16T02:43:03;100224.50;;;15.14;100.00
24558;BME280;12726;49.148;8.582;2022-10-16T02:45:48;100237.22;;;15.14;100.00
24558;BME280;12726;49.148;8.582;2022-10-16T02:48:34;100234.44;;;15.09;100.00
24558;BME280;12726;49.148;8.582;2022-10-16T02:51:19;100244.16;;;15.05;100.00
24558;BME280;12726;49.148;8.582;2022-10-16T02:54:06;100241.91;;;15.02;100.00
24558;BME280;12726;49.148;8.582;2022-10-16T02:56:52;100251.34;;;14.99;100.00
24558;BME280;12726;49.148;8.582;2022-10-16T02:59:38;100257.03;;;14.98;100.00
24558;BME280;12726;49.148;8.582;2022-10-16T03:02:23;100247.50;;;14.95;100.00
24558;BME280;12726;49.148;8.582;2022-10-16T03:05:09;100258.41;;;15.00;100.00
24558;BME280;12726;49.148;8.582;2022-10-16T03:07:55;100256.78;;;14.99;100.00
24558;BME280;12726;49.148;8.582;2022-10-16T03:10:45;100260.06;;;15.01;100.00
24558;BME280;12726;49.148;8.582;2022-10-16T03:13:30;100256.78;;;14.99;100.00
24558;BME280;12726;49.148;8.582;2022-10-16T03:16:16;100264.44;;;15.02;100.00
24558;BME280;12726;49.148;8.582;2022-10-16T03:19:02;100257.13;;;15.03;100.00
24558;BME280;12726;49.148;8.582;2022-10-16T03:21:47;100257.94;;;15.03;100.00
24558;BME280;12726;49.148;8.582;2022-10-16T03:24:33;100248.97;;;15.03;100.00
24558;BME280;12726;49.148;8.582;2022-10-16T03:27:20;100266.06;;;15.03;100.00
24558;BME280;12726;49.148;8.582;2022-10-16T03:30:07;100262.53;;;15.03;100.00
24558;BME280;12726;49.148;8.582;2022-10-16T03:32:52;100250.03;;;15.02;100.00
24558;BME280;12726;49.148;8.582;2022-10-16T03:35:38;100245.44;;;15.02;100.00
24558;BME280;12726;49.148;8.582;2022-10-16T03:38:24;100255.22;;;15.03;100.00
24558;BME280;12726;49.148;8.582;2022-10-16T03:41:09;100252.53;;;15.03;100.00
24558;BME280;12726;49.148;8.582;2022-10-16T03:43:57;100247.91;;;15.04;100.00
24558;BME280;12726;49.148;8.582;2022-10-16T03:46:42;100246.84;;;15.05;100.00
24558;BME280;12726;49.148;8.582;2022-10-16T03:49:28;100247.09;;;15.03;100.00
24558;BME280;12726;49.148;8.582;2022-10-16T03:52:14;100250.41;;;15.05;100.00
24558;BME280;12726;49.148;8.582;2022-10-16T03:55:00;100248.97;;;15.03;100.00
24558;BME280;12726;49.148;8.582;2022-10-16T03:57:46;100258.41;;;15.00;100.00
24558;BME280;12726;49.148;8.582;2022-10-16T04:00:33;100261.13;;;15.00;100.00
24558;BME280;12726;49.148;8.582;2022-10-16T04:03:18;100265.16;;;14.98;100.00
24558;BME280;12726;49.148;8.582;2022-10-16T04:06:05;100253.97;;;14.94;100.00
24558;BME280;12726;49.148;8.582;2022-10-16T04:08:51;100261.06;;;14.95;100.00
24558;BME280;12726;49.148;8.582;2022-10-16T04:11:36;100263.75;;;14.95;100.00
24558;BME280;12726;49.148;8.582;2022-10-16T04:14:22;100271.66;;;14.97;100.00
24558;BME280;12726;49.148;8.582;2022-10-16T04:17:10;100254.31;;;14.98;100.00
24558;BME280;12726;49.148;8.582;2022-10-16T04:19:56;100256.78;;;14.99;100.00
24558;BME280;12726;49.148;8.582;2022-10-16T04:22:42;100255.97;;;14.99;100.00
24558;BME280;12726;49.148;8.582;2022-10-16T04:25:28;100265.50;;;15.01;100.00
24558;BME280;12726;49.148;8.582;2022-10-16T04:28:14;100279.88;;;15.02;100.00
24558;BME280;12726;49.148;8.582;2022-10-16T04:31:00;100272.56;;;15.02;100.00
24558;BME280;12726;49.148;8.582;2022-10-16T04:33:50;100276.34;;;15.01;100.00
24558;BME280;12726;49.148;8.582;2022-10-16T04:36:35;100285.28;;;15.02;100.00
24558;BME280;12726;49.148;8.582;2022-10-16T04:39:21;100298.03;;;15.01;100.00
24558;BME280;12726;49.148;8.582;2022-10-16T04:42:07;100304.28;;;15.02;100.00
24558;BME280;12726;49.148;8.582;2022-10-16T04:44:53;100289.88;;;15.01;100.00
24558;BME280;12726;49.148;8.582;2022-10-16T04:47:39;100302.63;;;15.01;100.00
24558;BME280;12726;49.148;8.582;2022-10-16T04:50:26;100300.72;;;15.01;100.00
24558;BME280;12726;49.148;8.582;2022-10-16T04:53:12;100297.31;;;15.06;100.00
24558;BME280;12726;49.148;8.582;2022-10-16T04:55:58;100291.88;;;15.06;100.00
24558;BME280;12726;49.148;8.582;2022-10-16T04:58:44;100300.81;;;15.06;100.00
24558;BME280;12726;49.148;8.582;2022-10-16T05:01:30;100287.53;;;15.05;100.00
24558;BME280;12726;49.148;8.582;2022-10-16T05:04:16;100293.94;;;14.99;100.00
24558;BME280;12726;49.148;8.582;2022-10-16T05:07:02;100301.72;;;14.95;100.00
24558;BME280;12726;49.148;8.582;2022-10-16T05:09:48;100305.47;;;14.94;100.00
24558;BME280;12726;49.148;8.582;2022-10-16T05:12:35;100291.94;;;14.94;100.00
24558;BME280;12726;49.148;8.582;2022-10-16T05:15:20;100290.56;;;14.92;100.00
24558;BME280;12726;49.148;8.582;2022-10-16T05:18:09;100296.22;;;14.90;100.00
24558;BME280;12726;49.148;8.582;2022-10-16T05:20:54;100299.16;;;14.88;100.00
24558;BME280;12726;49.148;8.582;2022-10-16T05:23:42;100296.75;;;14.92;100.00
24558;BME280;12726;49.148;8.582;2022-10-16T05:26:28;100297.94;;;14.96;100.00
24558;BME280;12726;49.148;8.582;2022-10-16T05:29:13;100306.66;;;14.98;100.00
24558;BME280;12726;49.148;8.582;2022-10-16T05:31:59;100309.59;;;14.97;100.00
24558;BME280;12726;49.148;8.582;2022-10-16T05:34:46;100303.59;;;14.95;100.00
24558;BME280;12726;49.148;8.582;2022-10-16T05:37:32;100308.19;;;14.94;100.00
24558;BME280;12726;49.148;8.582;2022-10-16T05:40:19;100306.06;;;14.96;100.00
24558;BME280;12726;49.148;8.582;2022-10-16T05:43:06;100315.84;;;14.97;100.00
24558;BME280;12726;49.148;8.582;2022-10-16T05:45:56;100320.78;;;15.00;100.00
24558;BME280;12726;49.148;8.582;2022-10-16T05:48:42;100316.19;;;15.01;100.00
24558;BME280;12726;49.148;8.582;2022-10-16T05:51:29;100321.94;;;15.04;100.00
24558;BME280;12726;49.148;8.582;2022-10-16T05:54:14;100332.28;;;15.07;100.00
24558;BME280;12726;49.148;8.582;2022-10-16T05:57:01;100332.56;;;15.06;100.00
24558;BME280;12726;49.148;8.582;2022-10-16T05:59:49;100326.78;;;15.02;100.00
24558;BME280;12726;49.148;8.582;2022-10-16T06:02:35;100331.16;;;15.03;100.00
24558;BME280;12726;49.148;8.582;2022-10-16T06:05:21;100305.44;;;15.06;100.00
24558;BME280;12726;49.148;8.582;2022-10-16T06:08:07;100304.69;;;15.10;100.00
24558;BME280;12726;49.148;8.582;2022-10-16T06:11:00;100306.91;;;15.13;100.00
24558;BME280;12726;49.148;8.582;2022-10-16T06:13:50;100292.38;;;15.03;100.00
24558;BME280;12726;49.148;8.582;2022-10-16T06:16:37;100319.91;;;15.11;100.00
24558;BME280;12726;49.148;8.582;2022-10-16T06:19:23;100337.81;;;15.12;100.00
24558;BME280;12726;49.148;8.582;2022-10-16T06:22:08;100343.50;;;15.11;100.00
24558;BME280;12726;49.148;8.582;2022-10-16T06:24:54;100349.22;;;15.14;100.00
24558;BME280;12726;49.148;8.582;2022-10-16T06:27:40;100337.81;;;15.12;100.00
24558;BME280;12726;49.148;8.582;2022-10-16T06:30:26;100329.78;;;15.17;100.00
24558;BME280;12726;49.148;8.582;2022-10-16T06:33:12;100335.94;;;15.13;100.00
24558;BME280;12726;49.148;8.582;2022-10-16T06:36:02;100342.50;;;15.17;100.00
24558;BME280;12726;49.148;8.582;2022-10-16T06:38:47;100341.69;;;15.16;100.00
24558;BME280;12726;49.148;8.582;2022-10-16T06:41:33;100351.69;;;15.16;100.00
24558;BME280;12726;49.148;8.582;2022-10-16T06:44:19;100349.22;;;15.14;100.00
24558;BME280;12726;49.148;8.582;2022-10-16T06:47:06;100351.78;;;15.21;100.00
24558;BME280;12726;49.148;8.582;2022-10-16T06:49:52;100346.47;;;15.26;100.00
24558;BME280;12726;49.148;8.582;2022-10-16T06:52:37;100345.34;;;15.39;100.00
24558;BME280;12726;49.148;8.582;2022-10-16T06:55:23;100336.88;;;15.52;100.00
24558;BME280;12726;49.148;8.582;2022-10-16T06:58:09;100342.50;;;15.62;100.00
24558;BME280;12726;49.148;8.582;2022-10-16T07:00:55;100362.06;;;15.64;100.00
24558;BME280;12726;49.148;8.582;2022-10-16T07:03:44;100368.97;;;15.72;100.00
24558;BME280;12726;49.148;8.582;2022-10-16T07:06:32;100363.38;;;15.78;100.00
24558;BME280;12726;49.148;8.582;2022-10-16T07:09:19;100361.00;;;15.98;100.00
24558;BME280;12726;49.148;8.582;2022-10-16T07:12:04;100342.28;;;16.02;100.00
24558;BME280;12726;49.148;8.582;2022-10-16T07:14:50;100371.06;;;16.20;100.00
24558;BME280;12726;49.148;8.582;2022-10-16T07:17:36;100376.38;;;16.31;100.00
24558;BME280;12726;49.148;8.582;2022-10-16T07:20:24;100380.31;;;16.40;100.00
24558;BME280;12726;49.148;8.582;2022-10-16T07:23:09;100380.19;;;16.52;100.00
24558;BME280;12726;49.148;8.582;2022-10-16T07:25:54;100393.31;;;16.77;100.00
24558;BME280;12726;49.148;8.582;2022-10-16T07:28:43;100393.22;;;17.15;98.24
24558;BME280;12726;49.148;8.582;2022-10-16T07:31:28;100400.72;;;17.30;96.53
24558;BME280;12726;49.148;8.582;2022-10-16T07:34:15;100406.31;;;17.18;96.12
24558;BME280;12726;49.148;8.582;2022-10-16T07:37:02;100407.41;;;16.96;97.00
24558;BME280;12726;49.148;8.582;2022-10-16T07:39:48;100419.22;;;16.84;98.51
24558;BME280;12726;49.148;8.582;2022-10-16T07:42:33;100421.84;;;16.74;99.74
24558;BME280;12726;49.148;8.582;2022-10-16T07:45:19;100414.41;;;16.70;100.00
24558;BME280;12726;49.148;8.582;2022-10-16T07:48:04;100424.50;;;16.69;100.00
24558;BME280;12726;49.148;8.582;2022-10-16T07:50:50;100422.66;;;16.75;100.00
24558;BME280;12726;49.148;8.582;2022-10-16T07:53:37;100429.75;;;16.76;100.00
24558;BME280;12726;49.148;8.582;2022-10-16T07:56:22;100432.00;;;16.84;100.00
24558;BME280;12726;49.148;8.582;2022-10-16T07:59:08;100434.72;;;16.84;100.00
24558;BME280;12726;49.148;8.582;2022-10-16T08:01:54;100442.63;;;16.86;100.00
24558;BME280;12726;49.148;8.582;2022-10-16T08:04:39;100438.25;;;16.84;100.00
24558;BME280;12726;49.148;8.582;2022-10-16T08:07:25;100452.44;;;16.87;100.00
24558;BME280;12726;49.148;8.582;2022-10-16T08:10:15;100447.97;;;16.97;100.00
24558;BME280;12726;49.148;8.582;2022-10-16T08:13:01;100445.88;;;17.04;100.00
24558;BME280;12726;49.148;8.582;2022-10-16T08:15:47;100440.47;;;17.09;98.15
24558;BME280;12726;49.148;8.582;2022-10-16T08:18:33;100443.06;;;17.21;96.63
24558;BME280;12726;49.148;8.582;2022-10-16T08:21:20;100443.38;;;17.25;96.72
24558;BME280;12726;49.148;8.582;2022-10-16T08:24:06;100429.16;;;17.17;96.22
24558;BME280;12726;49.148;8.582;2022-10-16T08:26:54;100440.97;;;17.28;96.00
24558;BME280;12726;49.148;8.582;2022-10-16T08:29:39;100445.84;;;17.26;96.18
24558;BME280;12726;49.148;8.582;2022-10-16T08:32:25;100436.97;;;17.36;97.19
24558;BME280;12726;49.148;8.582;2022-10-16T08:35:11;100463.16;;;17.42;94.91
24558;BME280;12726;49.148;8.582;2022-10-16T08:37:57;100463.97;;;17.42;95.89
24558;BME280;12726;49.148;8.582;2022-10-16T08:40:42;100468.91;;;17.45;95.28
24558;BME280;12726;49.148;8.582;2022-10-16T08:43:40;100471.72;;;17.55;95.35
24558;BME280;12726;49.148;8.582;2022-10-16T08:46:38;100467.75;;;17.63;94.72
24558;BME280;12726;49.148;8.582;2022-10-16T08:49:29;100472.47;;;17.73;93.46
24558;BME280;12726;49.148;8.582;2022-10-16T08:52:15;100477.94;;;17.73;92.49
24558;BME280;12726;49.148;8.582;2022-10-16T08:55:01;100486.72;;;17.80;92.19
24558;BME280;12726;49.148;8.582;2022-10-16T08:57:47;100477.47;;;17.81;92.76
24558;BME280;12726;49.148;8.582;2022-10-16T09:00:34;100484.63;;;17.92;93.10
24558;BME280;12726;49.148;8.582;2022-10-16T09:03:36;100504.38;;;18.04;93.31
24558;BME280;12726;49.148;8.582;2022-10-16T09:06:33;100485.91;;;18.11;92.94
24558;BME280;12726;49.148;8.582;2022-10-16T09:09:35;100513.06;;;18.33;92.04
24558;BME280;12726;49.148;8.582;2022-10-16T09:12:27;100510.97;;;18.45;92.51
24558;BME280;12726;49.148;8.582;2022-10-16T09:15:25;100527.78;;;18.69;91.56
24558;BME280;12726;49.148;8.582;2022-10-16T09:18:20;100525.13;;;18.79;91.27
24558;BME280;12726;49.148;8.582;2022-10-16T09:21:13;100524.09;;;18.90;90.49
24558;BME280;12726;49.148;8.582;2022-10-16T09:24:09;100536.66;;;18.91;90.16
24558;BME280;12726;49.148;8.582;2022-10-16T09:26:56;100533.91;;;18.91;90.27
24558;BME280;12726;49.148;8.582;2022-10-16T09:29:42;100543.78;;;18.97;89.85
24558;BME280;12726;49.148;8.582;2022-10-16T09:32:28;100547.38;;;19.03;89.69
24558;BME280;12726;49.148;8.582;2022-10-16T09:35:16;100548.81;;;19.21;88.92
24558;BME280;12726;49.148;8.582;2022-10-16T09:38:04;100558.69;;;20.19;86.33
24558;BME280;12726;49.148;8.582;2022-10-16T09:40:50;100545.13;;;22.33;77.04
24558;BME280;12726;49.148;8.582;2022-10-16T09:43:39;100546.69;;;23.49;70.39
24558;BME280;12726;49.148;8.582;2022-10-16T09:46:28;100565.59;;;23.74;64.88
24558;BME280;12726;49.148;8.582;2022-10-16T09:49:21;100571.72;;;24.28;64.06
24558;BME280;12726;49.148;8.582;2022-10-16T09:52:13;100569.66;;;24.52;61.01
24558;BME280;12726;49.148;8.582;2022-10-16T09:55:00;100570.97;;;24.87;59.94
24558;BME280;12726;49.148;8.582;2022-10-16T09:57:49;100569.81;;;25.48;59.09
24558;BME280;12726;49.148;8.582;2022-10-16T10:00:35;100567.56;;;25.77;55.73
24558;BME280;12726;49.148;8.582;2022-10-16T10:03:33;100574.94;;;26.04;53.09
24558;BME280;12726;49.148;8.582;2022-10-16T10:06:24;100552.25;;;25.30;54.66
24558;BME280;12726;49.148;8.582;2022-10-16T10:09:20;100573.28;;;25.12;57.23
24558;BME280;12726;49.148;8.582;2022-10-16T10:12:17;100573.84;;;24.49;59.34
24558;BME280;12726;49.148;8.582;2022-10-16T10:15:06;100576.63;;;24.63;60.38
24558;BME280;12726;49.148;8.582;2022-10-16T10:17:54;100573.22;;;24.85;57.88
24558;BME280;12726;49.148;8.582;2022-10-16T10:20:40;100559.75;;;25.79;54.52
24558;BME280;12726;49.148;8.582;2022-10-16T10:23:26;100565.75;;;26.75;50.35
24558;BME280;12726;49.148;8.582;2022-10-16T10:26:17;100571.69;;;27.70;49.66
24558;BME280;12726;49.148;8.582;2022-10-16T10:29:06;100562.25;;;28.66;46.80
24558;BME280;12726;49.148;8.582;2022-10-16T10:32:06;100563.50;;;29.41;43.58
24558;BME280;12726;49.148;8.582;2022-10-16T10:35:07;100557.28;;;30.15;42.78
24558;BME280;12726;49.148;8.582;2022-10-16T10:38:07;100552.63;;;31.30;40.12
24558;BME280;12726;49.148;8.582;2022-10-16T10:41:05;100546.03;;;31.22;40.32
24558;BME280;12726;49.148;8.582;2022-10-16T10:44:05;100546.13;;;31.74;39.14
24558;BME280;12726;49.148;8.582;2022-10-16T10:46:57;100537.38;;;30.79;39.35
24558;BME280;12726;49.148;8.582;2022-10-16T10:49:50;100533.28;;;29.69;42.74
24558;BME280;12726;49.148;8.582;2022-10-16T10:52:47;100513.38;;;29.87;42.23
24558;BME280;12726;49.148;8.582;2022-10-16T10:55:40;100540.00;;;29.00;45.43
24558;BME280;12726;49.148;8.582;2022-10-16T10:58:39;100538.88;;;29.31;43.53
24558;BME280;12726;49.148;8.582;2022-10-16T11:01:35;100533.31;;;29.89;41.99
24558;BME280;12726;49.148;8.582;2022-10-16T11:04:39;100544.72;;;29.96;40.69
24558;BME280;12726;49.148;8.582;2022-10-16T11:07:33;100546.91;;;29.24;42.06
24558;BME280;12726;49.148;8.582;2022-10-16T11:10:33;100543.88;;;29.08;42.41
24558;BME280;12726;49.148;8.582;2022-10-16T11:13:31;100542.75;;;29.00;43.10
24558;BME280;12726;49.148;8.582;2022-10-16T11:16:21;100542.78;;;29.38;43.33
24558;BME280;12726;49.148;8.582;2022-10-16T11:19:21;100534.59;;;28.40;44.22
24558;BME280;12726;49.148;8.582;2022-10-16T11:22:16;100532.38;;;26.19;49.43
24558;BME280;12726;49.148;8.582;2022-10-16T11:25:13;100543.81;;;24.80;53.02
24558;BME280;12726;49.148;8.582;2022-10-16T11:28:03;100544.25;;;24.04;57.23
24558;BME280;12726;49.148;8.582;2022-10-16T11:30:54;100543.75;;;23.64;59.39
24558;BME280;12726;49.148;8.582;2022-10-16T11:33:46;100553.03;;;23.68;58.63
24558;BME280;12726;49.148;8.582;2022-10-16T11:36:38;100526.81;;;23.33;60.27
24558;BME280;12726;49.148;8.582;2022-10-16T11:39:26;100541.81;;;23.41;60.65
24558;BME280;12726;49.148;8.582;2022-10-16T11:42:18;100527.88;;;23.37;61.48
24558;BME280;12726;49.148;8.582;2022-10-16T11:45:13;100533.28;;;23.42;62.67
24558;BME280;12726;49.148;8.582;2022-10-16T11:48:07;100532.47;;;23.42;62.63
24558;BME280;12726;49.148;8.582;2022-10-16T11:51:02;100520.34;;;23.48;60.46
24558;BME280;12726;49.148;8.582;2022-10-16T11:53:56;100530.63;;;23.37;61.30
24558;BME280;12726;49.148;8.582;2022-10-16T11:56:45;100535.94;;;23.29;62.25
24558;BME280;12726;49.148;8.582;2022-10-16T11:59:36;100528.63;;;23.19;61.44
24558;BME280;12726;49.148;8.582;2022-10-16T12:02:32;100534.59;;;22.79;62.89
24558;BME280;12726;49.148;8.582;2022-10-16T12:05:25;100528.81;;;23.04;61.76
24558;BME280;12726;49.148;8.582;2022-10-16T12:08:16;100534.91;;;23.01;62.86
24558;BME280;12726;49.148;8.582;2022-10-16T12:11:23;100530.91;;;23.12;62.82
24558;BME280;12726;49.148;8.582;2022-10-16T12:14:33;100536.34;;;23.17;61.56
24558;BME280;12726;49.148;8.582;2022-10-16T12:17:24;100534.59;;;23.02;62.11
24558;BME280;12726;49.148;8.582;2022-10-16T12:20:26;100526.41;;;22.97;61.93
24558;BME280;12726;49.148;8.582;2022-10-16T12:23:20;100528.53;;;23.06;61.04
24558;BME280;12726;49.148;8.582;2022-10-16T12:26:06;100529.69;;;22.99;61.25
24558;BME280;12726;49.148;8.582;2022-10-16T12:28:53;100533.34;;;22.90;60.89
24558;BME280;12726;49.148;8.582;2022-10-16T12:31:44;100526.94;;;22.71;61.83
24558;BME280;12726;49.148;8.582;2022-10-16T12:34:38;100523.09;;;22.72;61.20
24558;BME280;12726;49.148;8.582;2022-10-16T12:37:26;100524.66;;;22.83;62.89
24558;BME280;12726;49.148;8.582;2022-10-16T12:40:15;100527.00;;;22.94;62.71
24558;BME280;12726;49.148;8.582;2022-10-16T12:43:11;100509.81;;;22.84;61.47
24558;BME280;12726;49.148;8.582;2022-10-16T12:46:06;100506.84;;;22.80;61.63
24558;BME280;12726;49.148;8.582;2022-10-16T12:49:17;100512.41;;;22.70;62.59
24558;BME280;12726;49.148;8.582;2022-10-16T12:52:24;100517.94;;;22.65;62.29
24558;BME280;12726;49.148;8.582;2022-10-16T12:55:16;100507.06;;;22.55;64.37
24558;BME280;12726;49.148;8.582;2022-10-16T12:58:15;100513.16;;;22.52;63.36
24558;BME280;12726;49.148;8.582;2022-10-16T13:01:10;100510.22;;;22.38;64.07
24558;BME280;12726;49.148;8.582;2022-10-16T13:04:25;100513.34;;;22.26;63.98
24558;BME280;12726;49.148;8.582;2022-10-16T13:07:28;100509.47;;;21.94;65.55
24558;BME280;12726;49.148;8.582;2022-10-16T13:10:22;100521.59;;;21.87;66.40
24558;BME280;12726;49.148;8.582;2022-10-16T13:13:20;100527.91;;;21.88;65.73
24558;BME280;12726;49.148;8.582;2022-10-16T13:16:15;100534.53;;;21.77;65.58
24558;BME280;12726;49.148;8.582;2022-10-16T13:19:12;100537.06;;;21.63;65.35
24558;BME280;12726;49.148;8.582;2022-10-16T13:22:05;100535.50;;;21.52;66.54
24558;BME280;12726;49.148;8.582;2022-10-16T13:25:05;100530.09;;;21.37;66.94
24558;BME280;12726;49.148;8.582;2022-10-16T13:28:00;100543.25;;;21.25;68.13
24558;BME280;12726;49.148;8.582;2022-10-16T13:30:52;100538.09;;;21.18;68.86
24558;BME280;12726;49.148;8.582;2022-10-16T13:33:41;100532.09;;;21.06;68.99
24558;BME280;12726;49.148;8.582;2022-10-16T13:36:29;100535.91;;;21.05;69.96
24558;BME280;12726;49.148;8.582;2022-10-16T13:39:21;100523.03;;;21.10;70.74
24558;BME280;12726;49.148;8.582;2022-10-16T13:42:10;100525.75;;;21.10;71.05
24558;BME280;12726;49.148;8.582;2022-10-16T13:44:56;100528.81;;;21.09;71.24
24558;BME280;12726;49.148;8.582;2022-10-16T13:47:42;100521.13;;;21.06;71.39
24558;BME280;12726;49.148;8.582;2022-10-16T13:50:29;100518.41;;;21.01;71.31
24558;BME280;12726;49.148;8.582;2022-10-16T13:53:15;100518.72;;;20.89;72.17
24558;BME280;12726;49.148;8.582;2022-10-16T13:56:02;100511.63;;;20.88;72.35
24558;BME280;12726;49.148;8.582;2022-10-16T13:58:58;100510.78;;;20.83;72.21
24558;BME280;12726;49.148;8.582;2022-10-16T14:01:44;100521.22;;;20.81;73.00
24558;BME280;12726;49.148;8.582;2022-10-16T14:04:32;100513.28;;;20.69;73.98
24558;BME280;12726;49.148;8.582;2022-10-16T14:07:23;100520.41;;;20.65;73.96
24558;BME280;12726;49.148;8.582;2022-10-16T14:10:20;100520.16;;;20.56;74.23
24558;BME280;12726;49.148;8.582;2022-10-16T14:13:12;100520.41;;;20.55;75.19
24558;BME280;12726;49.148;8.582;2022-10-16T14:16:04;100523.44;;;20.58;76.48
24558;BME280;12726;49.148;8.582;2022-10-16T14:18:56;100520.72;;;20.48;75.47
24558;BME280;12726;49.148;8.582;2022-10-16T14:21:42;100512.78;;;20.47;75.80
24558;BME280;12726;49.148;8.582;2022-10-16T14:24:33;100512.25;;;20.45;76.87
24558;BME280;12726;49.148;8.582;2022-10-16T14:27:28;100510.59;;;20.33;76.79
24558;BME280;12726;49.148;8.582;2022-10-16T14:30:16;100517.69;;;20.29;77.36
24558;BME280;12726;49.148;8.582;2022-10-16T14:33:04;100517.41;;;20.26;77.87
24558;BME280;12726;49.148;8.582;2022-10-16T14:36:02;100519.59;;;20.24;78.62
24558;BME280;12726;49.148;8.582;2022-10-16T14:38:56;100526.16;;;20.23;79.21
24558;BME280;12726;49.148;8.582;2022-10-16T14:41:46;100520.13;;;20.26;79.08